createdAt,value
2017-12-06T00:00:15.307Z,15.73
2017-12-06T00:02:42.801Z,10.45
2017-12-06T00:05:10.320Z,13.32
2017-12-06T00:07:37.812Z,16.10
2017-12-06T00:10:05.330Z,19.83
2017-12-06T00:12:39.194Z,19.12
2017-12-06T00:15:12.408Z,14.45
2017-12-06T00:17:40.673Z,15.90
2017-12-06T00:20:08.185Z,15.13
2017-12-06T00:22:35.684Z,11.98
2017-12-06T00:25:03.198Z,11.57
2017-12-06T00:27:30.692Z,14.87
2017-12-06T00:29:59.217Z,15.82
2017-12-06T00:32:27.484Z,15.82
2017-12-06T00:34:54.998Z,16.30
2017-12-06T00:37:22.493Z,13.75
2017-12-06T00:39:50.005Z,15.88
2017-12-06T00:42:17.496Z,17.95
2017-12-06T00:44:45.008Z,14.25
2017-12-06T00:47:12.647Z,15.48
2017-12-06T00:49:40.154Z,16.12
2017-12-06T00:52:07.652Z,14.85
2017-12-06T00:54:35.168Z,18.00
2017-12-06T00:57:02.655Z,14.87
2017-12-06T00:59:30.164Z,18.33
2017-12-06T01:01:58.442Z,18.30
2017-12-06T01:04:25.957Z,14.18
2017-12-06T01:06:53.456Z,18.52
2017-12-06T01:09:21.740Z,14.43
2017-12-06T01:11:49.233Z,17.90
2017-12-06T01:14:16.762Z,21.37
2017-12-06T01:16:44.259Z,17.12
2017-12-06T01:19:11.767Z,17.95
2017-12-06T01:21:40.033Z,21.45
2017-12-06T01:24:08.317Z,20.37
2017-12-06T01:26:35.837Z,20.70
2017-12-06T01:29:03.352Z,19.62
2017-12-06T01:31:30.844Z,16.12
2017-12-06T01:33:58.368Z,23.77
2017-12-06T01:36:25.861Z,19.17
2017-12-06T01:38:53.369Z,18.23
2017-12-06T01:41:21.640Z,17.45
2017-12-06T01:43:49.140Z,20.67
2017-12-06T01:46:16.655Z,18.62
2017-12-06T01:48:44.156Z,19.77
2017-12-06T01:51:11.674Z,19.95
2017-12-06T01:53:39.164Z,19.40
2017-12-06T01:56:06.693Z,19.85
2017-12-06T01:58:34.193Z,18.73
2017-12-06T02:01:01.714Z,18.40
2017-12-06T02:03:29.206Z,18.50
2017-12-06T02:05:56.736Z,19.10
2017-12-06T02:08:24.229Z,20.27
2017-12-06T02:10:51.747Z,20.25
2017-12-06T02:13:19.240Z,19.62
2017-12-06T02:15:46.757Z,21.90
2017-12-06T02:18:14.256Z,18.60
2017-12-06T02:20:41.784Z,18.90
2017-12-06T02:23:09.291Z,19.83
2017-12-06T02:25:36.813Z,17.20
2017-12-06T02:28:05.081Z,17.80
2017-12-06T02:30:32.604Z,20.60
2017-12-06T02:33:00.092Z,20.10
2017-12-06T02:35:27.602Z,16.05
2017-12-06T02:37:55.098Z,22.23
2017-12-06T02:40:34.632Z,13.85
2017-12-06T02:43:13.977Z,13.38
2017-12-06T02:45:41.489Z,12.43
2017-12-06T02:48:08.984Z,13.25
2017-12-06T02:50:36.494Z,10.38
2017-12-06T02:53:03.993Z,11.05
2017-12-06T02:55:31.500Z,16.62
2017-12-06T02:57:58.999Z,10.90
2017-12-06T03:00:26.516Z,13.55
2017-12-06T03:02:54.007Z,12.23
2017-12-06T03:05:21.520Z,10.82
2017-12-06T03:07:49.006Z,8.20
2017-12-06T03:10:17.340Z,11.43
2017-12-06T03:12:44.833Z,9.80
2017-12-06T03:15:12.347Z,8.55
2017-12-06T03:17:39.838Z,8.80
2017-12-06T03:20:07.343Z,10.98
2017-12-06T03:22:34.836Z,9.80
2017-12-06T03:25:02.341Z,10.20
2017-12-06T03:27:30.600Z,10.05
2017-12-06T03:29:58.109Z,8.05
2017-12-06T03:32:25.592Z,13.62
2017-12-06T03:34:53.101Z,8.88
2017-12-06T03:37:21.374Z,11.43
2017-12-06T03:39:49.663Z,10.18
2017-12-06T03:42:17.376Z,8.98
2017-12-06T03:44:44.890Z,8.40
2017-12-06T03:47:12.380Z,9.18
2017-12-06T03:49:39.892Z,9.25
2017-12-06T03:52:08.144Z,10.55
2017-12-06T03:54:35.650Z,8.15
2017-12-06T03:57:03.141Z,10.80
2017-12-06T03:59:30.662Z,11.12
2017-12-06T04:01:58.168Z,9.98
2017-12-06T04:04:25.681Z,10.40
2017-12-06T04:06:53.174Z,8.13
2017-12-06T04:09:20.679Z,7.55
2017-12-06T04:11:48.934Z,13.32
2017-12-06T04:14:16.445Z,10.05
2017-12-06T04:16:43.937Z,6.43
2017-12-06T04:19:11.443Z,14.77
2017-12-06T04:21:39.704Z,10.00
2017-12-06T04:24:07.207Z,9.93
2017-12-06T04:26:34.697Z,8.65
2017-12-06T04:29:02.203Z,11.70
2017-12-06T04:31:30.464Z,10.98
2017-12-06T04:33:58.732Z,9.25
2017-12-06T04:36:26.212Z,9.60
2017-12-06T04:38:54.481Z,9.90
2017-12-06T04:41:22.728Z,9.70
2017-12-06T04:43:50.228Z,7.75
2017-12-06T04:46:18.476Z,12.60
2017-12-06T04:48:45.980Z,8.85
2017-12-06T04:51:13.475Z,10.30
2017-12-06T04:53:40.980Z,10.45
2017-12-06T04:56:08.487Z,9.00
2017-12-06T04:58:36.008Z,7.70
2017-12-06T05:01:08.313Z,9.10
2017-12-06T05:03:35.852Z,8.80
2017-12-06T05:06:03.337Z,12.02
2017-12-06T05:08:30.839Z,7.85
2017-12-06T05:10:58.362Z,8.27
2017-12-06T05:13:25.885Z,7.47
2017-12-06T05:15:53.387Z,10.60
2017-12-06T05:18:20.901Z,8.93
2017-12-06T05:20:48.400Z,10.07
2017-12-06T05:23:15.914Z,8.75
2017-12-06T05:25:43.399Z,10.20
2017-12-06T05:28:11.671Z,9.35
2017-12-06T05:30:39.163Z,7.37
2017-12-06T05:33:06.683Z,9.57
2017-12-06T05:35:34.184Z,11.98
2017-12-06T05:38:01.699Z,11.48
2017-12-06T05:40:29.200Z,12.05
2017-12-06T05:42:56.714Z,11.90
2017-12-06T05:45:24.218Z,15.13
2017-12-06T05:47:51.728Z,10.50
2017-12-06T05:50:19.224Z,10.30
2017-12-06T05:52:46.738Z,9.02
2017-12-06T05:55:14.235Z,10.35
2017-12-06T05:57:41.767Z,10.25
2017-12-06T06:00:09.269Z,13.10
2017-12-06T06:02:36.781Z,11.02
2017-12-06T06:05:04.270Z,13.32
2017-12-06T06:07:31.779Z,9.88
2017-12-06T06:10:00.048Z,17.77
2017-12-06T06:12:27.695Z,10.38
2017-12-06T06:14:55.194Z,20.92
2017-12-06T06:17:23.476Z,10.30
2017-12-06T06:19:50.971Z,13.73
2017-12-06T06:22:18.476Z,12.48
2017-12-06T06:24:46.756Z,12.35
2017-12-06T06:27:14.253Z,12.10
2017-12-06T06:29:41.782Z,11.40
2017-12-06T06:32:10.046Z,13.13
2017-12-06T06:34:38.328Z,12.43
2017-12-06T06:37:06.581Z,15.32
2017-12-06T06:39:34.096Z,11.73
2017-12-06T06:42:01.592Z,10.05
2017-12-06T06:44:29.103Z,15.13
2017-12-06T06:46:56.592Z,12.60
2017-12-06T06:49:24.108Z,12.95
2017-12-06T06:51:52.365Z,10.95
2017-12-06T06:54:19.882Z,14.00
2017-12-06T06:56:48.148Z,13.15
2017-12-06T06:59:15.665Z,12.23
2017-12-06T07:01:43.161Z,10.77
2017-12-06T07:04:10.664Z,13.32
2017-12-06T07:06:39.759Z,11.30
2017-12-06T07:09:07.571Z,12.60
2017-12-06T07:11:36.084Z,12.50
2017-12-06T07:14:03.616Z,10.93
2017-12-06T07:16:31.113Z,11.00
2017-12-06T07:18:59.691Z,10.30
2017-12-06T07:21:27.216Z,12.27
2017-12-06T07:23:54.730Z,15.27
2017-12-06T07:26:22.319Z,11.20
2017-12-06T07:28:49.846Z,10.88
2017-12-06T07:31:17.353Z,11.70
2017-12-06T07:33:44.953Z,11.77
2017-12-06T07:36:12.461Z,10.63
2017-12-06T07:38:40.827Z,12.27
2017-12-06T07:41:09.092Z,10.27
2017-12-06T07:43:36.840Z,10.18
2017-12-06T07:46:04.425Z,14.87
2017-12-06T07:48:32.740Z,10.93
2017-12-06T07:51:00.234Z,10.75
2017-12-06T07:53:27.768Z,18.80
2017-12-06T07:55:55.265Z,12.68
2017-12-06T07:58:28.352Z,10.27
2017-12-06T08:00:55.840Z,12.88
2017-12-06T08:03:23.348Z,8.38
2017-12-06T08:05:50.849Z,18.42
2017-12-06T08:08:18.368Z,11.12
2017-12-06T08:10:45.856Z,10.43
2017-12-06T08:13:13.375Z,11.38
2017-12-06T08:15:40.882Z,12.85
2017-12-06T08:18:08.406Z,18.77
2017-12-06T08:20:35.892Z,15.02
2017-12-06T08:23:03.399Z,9.60
2017-12-06T08:25:30.902Z,12.95
2017-12-06T08:27:58.422Z,14.07
2017-12-06T08:30:25.924Z,15.02
2017-12-06T08:32:53.440Z,10.75
2017-12-06T08:35:20.926Z,9.75
2017-12-06T08:37:48.440Z,9.98
2017-12-06T08:40:16.698Z,10.02
2017-12-06T08:42:44.223Z,10.40
2017-12-06T08:45:11.725Z,9.10
2017-12-06T08:47:39.242Z,13.82
2017-12-06T08:50:06.751Z,11.57
2017-12-06T08:52:35.049Z,13.52
2017-12-06T08:55:03.305Z,10.63
2017-12-06T08:57:30.822Z,10.38
2017-12-06T08:59:58.322Z,16.85
2017-12-06T09:02:25.847Z,13.48
2017-12-06T09:04:53.337Z,14.40
2017-12-06T09:07:20.883Z,11.70
2017-12-06T09:09:48.386Z,10.98
2017-12-06T09:12:15.892Z,11.95
2017-12-06T09:14:43.380Z,15.95
2017-12-06T09:17:11.666Z,10.15
2017-12-06T09:19:39.937Z,11.77
2017-12-06T09:22:08.219Z,18.08
2017-12-06T09:24:36.473Z,13.13
2017-12-06T09:27:03.988Z,12.13
2017-12-06T09:29:31.476Z,10.93
2017-12-06T09:31:59.988Z,11.77
2017-12-06T09:34:27.489Z,12.50
2017-12-06T09:36:55.004Z,14.02
2017-12-06T09:39:22.493Z,12.82
2017-12-06T09:41:50.012Z,10.82
2017-12-06T09:44:17.504Z,12.48
2017-12-06T09:46:45.789Z,16.80
2017-12-06T09:49:13.285Z,11.35
2017-12-06T09:51:40.804Z,8.73
2017-12-06T09:54:08.308Z,14.63
2017-12-06T09:56:35.834Z,14.63
2017-12-06T09:59:03.330Z,11.07
2017-12-06T10:01:30.854Z,12.98
2017-12-06T10:03:58.348Z,16.95
2017-12-06T10:06:25.856Z,12.75
2017-12-06T10:08:54.124Z,12.93
2017-12-06T10:11:22.401Z,15.45
2017-12-06T10:13:50.660Z,15.25
2017-12-06T10:16:18.175Z,13.50
2017-12-06T10:18:45.679Z,13.20
2017-12-06T10:21:13.184Z,16.30
2017-12-06T10:23:40.700Z,14.40
2017-12-06T10:26:08.216Z,16.90
2017-12-06T10:28:35.709Z,15.50
2017-12-06T10:31:03.220Z,15.73
2017-12-06T10:33:30.718Z,13.55
2017-12-06T10:35:58.236Z,16.95
2017-12-06T10:38:25.728Z,15.15
2017-12-06T10:40:53.246Z,12.43
2017-12-06T10:43:20.741Z,16.90
2017-12-06T10:45:48.258Z,11.98
2017-12-06T10:48:15.769Z,14.32
2017-12-06T10:50:43.281Z,28.00
2017-12-06T10:53:11.546Z,17.25
2017-12-06T10:55:39.829Z,19.58
2017-12-06T10:58:08.089Z,15.07
2017-12-06T11:00:35.591Z,13.43
2017-12-06T11:03:03.086Z,14.80
2017-12-06T11:05:30.587Z,18.08
2017-12-06T11:07:58.876Z,13.55
2017-12-06T11:10:26.389Z,12.50
2017-12-06T11:12:53.902Z,14.35
2017-12-06T11:15:21.401Z,18.62
2017-12-06T11:17:48.916Z,14.77
2017-12-06T11:20:16.416Z,17.87
2017-12-06T11:22:43.943Z,19.87
2017-12-06T11:25:11.438Z,17.42
2017-12-06T11:27:38.953Z,18.83
2017-12-06T11:30:06.450Z,15.88
2017-12-06T11:32:33.965Z,14.50
2017-12-06T11:35:01.459Z,13.77
2017-12-06T11:37:28.977Z,14.63
2017-12-06T11:39:57.235Z,17.98
2017-12-06T11:42:24.754Z,17.83
2017-12-06T11:44:52.249Z,14.87
2017-12-06T11:47:20.545Z,16.02
2017-12-06T11:49:50.733Z,14.80
2017-12-06T11:52:18.257Z,13.02
2017-12-06T11:54:45.744Z,14.30
2017-12-06T11:57:13.271Z,14.60
2017-12-06T11:59:40.774Z,15.70
2017-12-06T12:02:08.287Z,17.62
2017-12-06T12:04:35.785Z,18.55
2017-12-06T12:07:03.292Z,17.02
2017-12-06T12:09:30.809Z,16.27
2017-12-06T12:11:58.337Z,16.27
2017-12-06T12:14:25.836Z,17.37
2017-12-06T12:16:53.354Z,18.42
2017-12-06T12:19:21.612Z,15.52
2017-12-06T12:21:49.131Z,12.07
2017-12-06T12:24:16.624Z,17.48
2017-12-06T12:26:44.907Z,15.32
2017-12-06T12:29:12.396Z,19.48
2017-12-06T12:31:39.908Z,23.08
2017-12-06T12:34:08.166Z,18.65
2017-12-06T12:36:35.720Z,18.10
2017-12-06T12:39:03.220Z,15.27
2017-12-06T12:41:30.733Z,17.25
2017-12-06T12:43:58.464Z,19.62
2017-12-06T12:46:25.973Z,17.70
2017-12-06T12:48:53.474Z,16.80
2017-12-06T12:51:21.001Z,15.48
2017-12-06T12:53:49.265Z,15.18
2017-12-06T12:56:16.775Z,14.85
2017-12-06T12:58:44.268Z,14.30
2017-12-06T13:01:11.796Z,14.73
2017-12-06T13:03:39.288Z,18.60
2017-12-06T13:06:06.796Z,17.15
2017-12-06T13:08:34.311Z,15.88
2017-12-06T13:11:01.827Z,19.75
2017-12-06T13:13:29.324Z,15.52
2017-12-06T13:15:56.847Z,15.95
2017-12-06T13:18:24.340Z,16.58
2017-12-06T13:20:51.861Z,18.02
2017-12-06T13:23:19.356Z,17.85
2017-12-06T13:25:46.871Z,17.83
2017-12-06T13:28:15.132Z,18.40
2017-12-06T13:30:43.421Z,16.62
2017-12-06T13:33:11.688Z,17.08
2017-12-06T13:35:39.973Z,16.73
2017-12-06T13:38:08.339Z,18.08
2017-12-06T13:40:36.620Z,20.77
2017-12-06T13:43:04.881Z,14.35
2017-12-06T13:45:32.429Z,17.80
2017-12-06T13:47:59.991Z,18.25
2017-12-06T13:50:27.502Z,27.08
2017-12-06T13:52:55.103Z,14.85
2017-12-06T13:55:22.630Z,13.27
2017-12-06T13:57:50.133Z,18.55
2017-12-06T14:00:17.641Z,33.95
2017-12-06T14:02:45.148Z,21.42
2017-12-06T14:05:12.670Z,18.58
2017-12-06T14:07:40.164Z,18.10
2017-12-06T14:10:07.688Z,14.27
2017-12-06T14:12:35.177Z,19.58
2017-12-06T14:15:02.686Z,16.65
2017-12-06T14:17:30.948Z,14.68
2017-12-06T14:19:59.228Z,14.65
2017-12-06T14:22:27.493Z,15.95
2017-12-06T14:24:55.008Z,12.15
2017-12-06T14:27:22.505Z,14.02
2017-12-06T14:29:50.022Z,19.08
2017-12-06T14:32:17.524Z,13.88
2017-12-06T14:34:45.040Z,16.45
2017-12-06T14:37:12.532Z,20.40
2017-12-06T14:39:40.044Z,17.35
2017-12-06T14:42:07.541Z,15.18
2017-12-06T14:44:35.056Z,16.98
2017-12-06T14:47:02.554Z,15.48
2017-12-06T14:49:30.064Z,15.68
2017-12-06T14:51:58.324Z,15.68
2017-12-06T14:54:25.845Z,17.00
2017-12-06T14:56:53.340Z,17.42
2017-12-06T14:59:20.903Z,18.60
2017-12-06T15:01:48.402Z,15.13
2017-12-06T15:04:15.941Z,14.15
2017-12-06T15:06:44.193Z,12.37
2017-12-06T15:09:11.698Z,22.27
2017-12-06T15:11:39.213Z,15.68
2017-12-06T15:14:06.732Z,15.93
2017-12-06T15:16:34.228Z,11.57
2017-12-06T15:19:01.721Z,12.80
2017-12-06T15:21:30.004Z,15.38
2017-12-06T15:23:57.525Z,12.45
2017-12-06T15:26:25.017Z,13.43
2017-12-06T15:28:52.517Z,10.35
2017-12-06T15:31:20.025Z,15.82
2017-12-06T15:33:48.297Z,15.35
2017-12-06T15:36:16.593Z,17.35
2017-12-06T15:38:44.097Z,12.50
2017-12-06T15:41:11.608Z,15.25
2017-12-06T15:43:39.868Z,15.98
2017-12-06T15:46:08.173Z,13.35
2017-12-06T15:48:35.678Z,12.70
2017-12-06T15:51:03.188Z,14.60
2017-12-06T16:07:48.327Z,16.27
2017-12-06T16:10:15.826Z,13.85
2017-12-06T16:12:43.317Z,17.65
2017-12-06T16:15:10.820Z,18.15
2017-12-06T16:17:39.071Z,19.20
2017-12-06T16:20:06.591Z,13.73
2017-12-06T16:22:34.077Z,16.87
2017-12-06T16:25:01.582Z,19.70
2017-12-06T16:27:29.841Z,22.73
2017-12-06T16:29:57.343Z,15.75
2017-12-06T16:32:24.836Z,17.30
2017-12-06T16:35:04.224Z,12.48
2017-12-06T16:37:32.468Z,16.90
2017-12-06T16:39:59.973Z,18.20
2017-12-06T16:42:27.468Z,14.43
2017-12-06T16:44:54.984Z,16.77
2017-12-06T16:47:22.476Z,11.70
2017-12-06T16:49:49.984Z,11.80
2017-12-06T16:52:18.239Z,15.88
2017-12-06T16:54:45.752Z,15.18
2017-12-06T16:57:13.249Z,17.90
2017-12-06T16:59:40.769Z,19.55
2017-12-06T17:02:08.299Z,16.48
2017-12-06T17:04:35.793Z,13.60
2017-12-06T17:07:04.056Z,14.07
2017-12-06T17:09:32.499Z,12.37
2017-12-06T17:11:59.993Z,15.70
2017-12-06T17:14:27.517Z,19.90
2017-12-06T17:16:55.793Z,15.00
2017-12-06T17:19:23.304Z,13.35
2017-12-06T17:21:51.578Z,17.58
2017-12-06T17:24:19.093Z,15.35
2017-12-06T17:26:46.597Z,15.27
2017-12-06T17:29:25.978Z,17.50
2017-12-06T17:31:53.477Z,13.77
2017-12-06T17:34:21.756Z,12.45
2017-12-06T17:36:49.247Z,13.23
2017-12-06T17:39:16.761Z,29.77
2017-12-06T17:41:45.033Z,15.48
2017-12-06T17:44:13.310Z,13.95
2017-12-06T17:46:40.812Z,12.88
2017-12-06T17:49:08.329Z,13.32
2017-12-06T17:51:36.584Z,11.40
2017-12-06T17:54:04.095Z,20.08
2017-12-06T17:56:31.588Z,14.85
2017-12-06T17:58:59.096Z,16.70
2017-12-06T18:01:27.348Z,14.32
2017-12-06T18:03:54.866Z,14.15
2017-12-06T18:06:22.352Z,13.43
2017-12-06T18:08:49.885Z,15.43
2017-12-06T18:11:17.376Z,14.10
2017-12-06T18:13:44.880Z,13.73
2017-12-06T18:16:12.371Z,16.62
2017-12-06T18:18:39.880Z,12.27
2017-12-06T18:21:08.143Z,14.93
2017-12-06T18:23:35.750Z,14.87
2017-12-06T18:26:03.262Z,13.57
2017-12-06T18:28:30.752Z,15.25
2017-12-06T18:30:59.175Z,17.73
2017-12-06T18:33:26.677Z,13.88
2017-12-06T18:35:54.196Z,14.77
2017-12-06T18:38:21.696Z,19.65
2017-12-06T18:40:49.975Z,14.18
2017-12-06T18:43:18.240Z,19.12
2017-12-06T18:45:45.744Z,13.35
2017-12-06T18:48:13.242Z,16.50
2017-12-06T18:50:40.732Z,13.20
2017-12-06T18:53:09.008Z,15.00
2017-12-06T18:55:37.298Z,12.85
2017-12-06T18:58:04.793Z,13.13
2017-12-06T19:00:32.988Z,12.25
2017-12-06T19:03:00.468Z,14.25
2017-12-06T19:05:27.968Z,13.57
2017-12-06T19:07:55.487Z,15.02
2017-12-06T19:10:23.754Z,12.32
2017-12-06T19:12:51.276Z,15.02
2017-12-06T19:15:19.380Z,11.32
2017-12-06T19:17:46.894Z,13.80
2017-12-06T19:20:14.386Z,15.88
2017-12-06T19:22:41.906Z,14.77
2017-12-06T19:25:10.340Z,16.37
2017-12-06T19:27:37.871Z,13.85
2017-12-06T19:30:06.400Z,17.48
2017-12-06T19:32:33.907Z,15.70
2017-12-06T19:35:01.406Z,15.60
2017-12-06T19:37:28.920Z,11.10
2017-12-06T19:39:56.429Z,14.23
2017-12-06T19:42:23.947Z,11.95
2017-12-06T19:44:51.451Z,15.52
2017-12-06T19:47:18.964Z,11.50
2017-12-06T19:49:47.168Z,14.27
2017-12-06T19:52:14.680Z,11.60
2017-12-06T19:54:42.196Z,12.45
2017-12-06T19:57:09.783Z,12.75
2017-12-06T19:59:37.256Z,11.95
2017-12-06T20:02:05.225Z,17.12
2017-12-06T20:04:33.890Z,13.57
2017-12-06T20:07:02.240Z,12.10
2017-12-06T20:09:29.780Z,15.43
2017-12-06T20:11:57.295Z,14.32
2017-12-06T20:14:25.563Z,12.20
2017-12-06T20:16:53.830Z,13.55
2017-12-06T20:19:21.349Z,16.40
2017-12-06T20:21:48.849Z,14.95
2017-12-06T20:24:16.427Z,15.77
2017-12-06T20:26:44.684Z,14.10
2017-12-06T20:29:12.196Z,13.65
2017-12-06T20:31:39.732Z,16.98
2017-12-06T20:34:08.018Z,18.90
2017-12-06T20:36:35.514Z,14.32
2017-12-06T20:39:03.036Z,15.73
2017-12-06T20:41:30.533Z,15.52
2017-12-06T20:43:58.044Z,21.17
2017-12-06T20:46:26.202Z,16.48
2017-12-06T20:48:53.718Z,15.50
2017-12-06T20:51:21.214Z,16.05
2017-12-06T20:53:48.736Z,19.80
2017-12-06T20:56:16.236Z,17.70
2017-12-06T20:58:43.752Z,15.88
2017-12-06T21:01:11.260Z,14.77
2017-12-06T21:03:39.549Z,20.75
2017-12-06T21:06:07.884Z,18.15
2017-12-06T21:08:36.376Z,15.30
2017-12-06T21:11:04.791Z,14.68
2017-12-06T21:13:33.049Z,15.73
2017-12-06T21:16:00.560Z,14.00
2017-12-06T21:18:28.052Z,16.52
2017-12-06T21:20:55.574Z,17.27
2017-12-06T21:23:23.865Z,17.15
2017-12-06T21:25:51.383Z,17.25
2017-12-06T21:28:19.653Z,20.67
2017-12-06T21:30:47.461Z,19.87
2017-12-06T21:33:14.953Z,16.85
2017-12-06T21:35:42.499Z,17.87
2017-12-06T21:38:10.023Z,21.45
2017-12-06T21:40:38.370Z,15.65
2017-12-06T21:43:05.978Z,22.17
2017-12-06T21:45:33.482Z,22.02
2017-12-06T21:48:00.993Z,19.75
2017-12-06T21:50:28.506Z,17.27
2017-12-06T21:52:56.024Z,20.60
2017-12-06T21:55:23.527Z,20.12
2017-12-06T21:57:51.029Z,21.12
2017-12-06T22:00:18.562Z,20.70
2017-12-06T22:02:46.818Z,23.55
2017-12-06T22:05:14.341Z,22.42
2017-12-06T22:07:41.860Z,26.05
2017-12-06T22:10:10.149Z,26.73
2017-12-06T22:12:37.646Z,21.20
2017-12-06T22:15:05.170Z,24.33
2017-12-06T22:17:32.674Z,22.73
2017-12-06T22:20:00.193Z,22.40
2017-12-06T22:22:27.702Z,24.60
2017-12-06T22:24:55.213Z,24.83
2017-12-06T22:27:22.706Z,24.95
2017-12-06T22:29:50.228Z,27.05
2017-12-06T22:32:17.722Z,25.35
2017-12-06T22:34:45.254Z,25.10
2017-12-06T22:37:12.762Z,26.70
2017-12-06T22:39:40.278Z,25.00
2017-12-06T22:42:07.780Z,29.55
2017-12-06T22:44:35.300Z,29.33
2017-12-06T22:47:02.797Z,30.60
2017-12-06T22:49:30.315Z,26.85
2017-12-06T22:51:57.821Z,31.77
2017-12-06T22:54:25.321Z,33.22
2017-12-06T22:56:52.845Z,33.60
2017-12-06T22:59:20.345Z,36.08
2017-12-06T23:01:47.862Z,33.63
2017-12-06T23:04:15.358Z,34.63
2017-12-06T23:06:42.873Z,31.90
2017-12-06T23:09:10.368Z,37.13
2017-12-06T23:11:38.657Z,34.05
2017-12-06T23:14:06.157Z,37.95
2017-12-06T23:16:33.673Z,32.58
2017-12-06T23:19:01.181Z,44.25
2017-12-06T23:21:28.701Z,39.03
2017-12-06T23:23:56.202Z,34.95
2017-12-06T23:26:23.721Z,37.10
2017-12-06T23:28:51.221Z,33.00
2017-12-06T23:31:18.743Z,33.70
2017-12-06T23:33:46.238Z,38.13
2017-12-06T23:36:13.748Z,34.90
2017-12-06T23:38:41.256Z,35.13
2017-12-06T23:41:08.773Z,33.65
2017-12-06T23:43:36.280Z,32.70
2017-12-06T23:46:03.801Z,36.75
2017-12-06T23:48:31.305Z,33.50
2017-12-06T23:50:58.920Z,30.27
2017-12-06T23:53:26.421Z,35.22
2017-12-06T23:55:53.915Z,39.65
2017-12-06T23:58:21.424Z,37.05
